sensor_id;sensor_type;location;lat;lon;timestamp;temperature;humidity
76967;DHT22;65904;52.278;20.972;2023-08-30T00:01:34;23.40;99.90
76967;DHT22;65904;52.278;20.972;2023-08-30T00:04:21;23.40;99.90
76967;DHT22;65904;52.278;20.972;2023-08-30T00:07:07;23.40;99.90
76967;DHT22;65904;52.278;20.972;2023-08-30T00:09:57;23.40;99.90
76967;DHT22;65904;52.278;20.972;2023-08-30T00:12:43;23.30;99.90
76967;DHT22;65904;52.278;20.972;2023-08-30T00:15:30;23.30;99.90
76967;DHT22;65904;52.278;20.972;2023-08-30T00:18:17;23.20;99.90
76967;DHT22;65904;52.278;20.972;2023-08-30T00:21:04;23.20;99.90
76967;DHT22;65904;52.278;20.972;2023-08-30T00:23:51;23.20;99.90
76967;DHT22;65904;52.278;20.972;2023-08-30T00:26:37;23.20;99.90
76967;DHT22;65904;52.278;20.972;2023-08-30T00:29:24;23.20;99.90
76967;DHT22;65904;52.278;20.972;2023-08-30T00:32:10;23.20;99.90
76967;DHT22;65904;52.278;20.972;2023-08-30T00:34:57;23.20;99.90
76967;DHT22;65904;52.278;20.972;2023-08-30T00:37:44;23.20;99.90
76967;DHT22;65904;52.278;20.972;2023-08-30T00:40:37;23.20;99.90
76967;DHT22;65904;52.278;20.972;2023-08-30T00:43:24;23.20;99.90
76967;DHT22;65904;52.278;20.972;2023-08-30T00:46:10;23.20;99.90
76967;DHT22;65904;52.278;20.972;2023-08-30T00:48:56;23.20;99.90
76967;DHT22;65904;52.278;20.972;2023-08-30T00:51:44;23.10;99.90
76967;DHT22;65904;52.278;20.972;2023-08-30T00:54:30;23.10;99.90
76967;DHT22;65904;52.278;20.972;2023-08-30T00:57:17;23.10;99.90
76967;DHT22;65904;52.278;20.972;2023-08-30T01:00:06;23.00;99.90
76967;DHT22;65904;52.278;20.972;2023-08-30T01:02:52;23.00;99.90
76967;DHT22;65904;52.278;20.972;2023-08-30T01:05:39;23.00;99.90
76967;DHT22;65904;52.278;20.972;2023-08-30T01:08:27;23.00;99.90
76967;DHT22;65904;52.278;20.972;2023-08-30T01:11:18;23.00;99.90
76967;DHT22;65904;52.278;20.972;2023-08-30T01:14:08;23.00;99.90
76967;DHT22;65904;52.278;20.972;2023-08-30T01:16:55;22.90;99.90
76967;DHT22;65904;52.278;20.972;2023-08-30T01:19:48;22.90;99.90
76967;DHT22;65904;52.278;20.972;2023-08-30T01:22:43;22.90;99.90
76967;DHT22;65904;52.278;20.972;2023-08-30T01:25:42;22.90;99.90
76967;DHT22;65904;52.278;20.972;2023-08-30T01:28:31;22.80;99.90
76967;DHT22;65904;52.278;20.972;2023-08-30T01:31:20;22.90;99.90
76967;DHT22;65904;52.278;20.972;2023-08-30T01:34:07;22.90;99.90
76967;DHT22;65904;52.278;20.972;2023-08-30T01:36:53;22.80;99.90
76967;DHT22;65904;52.278;20.972;2023-08-30T01:39:40;22.90;99.90
76967;DHT22;65904;52.278;20.972;2023-08-30T01:42:27;22.80;99.90
76967;DHT22;65904;52.278;20.972;2023-08-30T01:45:15;22.80;99.90
76967;DHT22;65904;52.278;20.972;2023-08-30T01:48:03;22.80;99.90
76967;DHT22;65904;52.278;20.972;2023-08-30T01:50:51;22.70;99.90
76967;DHT22;65904;52.278;20.972;2023-08-30T01:53:39;22.70;99.90
76967;DHT22;65904;52.278;20.972;2023-08-30T01:56:26;22.70;99.90
76967;DHT22;65904;52.278;20.972;2023-08-30T01:59:12;22.70;99.90
76967;DHT22;65904;52.278;20.972;2023-08-30T02:02:00;22.70;99.90
76967;DHT22;65904;52.278;20.972;2023-08-30T02:04:48;22.70;99.90
76967;DHT22;65904;52.278;20.972;2023-08-30T02:07:40;22.70;99.90
76967;DHT22;65904;52.278;20.972;2023-08-30T02:10:34;22.70;99.90
76967;DHT22;65904;52.278;20.972;2023-08-30T02:13:25;22.70;99.90
76967;DHT22;65904;52.278;20.972;2023-08-30T02:16:13;22.70;99.90
76967;DHT22;65904;52.278;20.972;2023-08-30T02:19:02;22.60;99.90
76967;DHT22;65904;52.278;20.972;2023-08-30T02:21:48;22.70;99.90
76967;DHT22;65904;52.278;20.972;2023-08-30T02:24:37;22.70;99.90
76967;DHT22;65904;52.278;20.972;2023-08-30T02:27:23;22.70;99.90
76967;DHT22;65904;52.278;20.972;2023-08-30T02:30:09;22.60;99.90
76967;DHT22;65904;52.278;20.972;2023-08-30T02:32:55;22.60;99.90
76967;DHT22;65904;52.278;20.972;2023-08-30T02:35:42;22.70;99.90
76967;DHT22;65904;52.278;20.972;2023-08-30T02:38:29;22.70;99.90
76967;DHT22;65904;52.278;20.972;2023-08-30T02:41:15;22.60;99.90
76967;DHT22;65904;52.278;20.972;2023-08-30T02:44:01;22.60;99.90
76967;DHT22;65904;52.278;20.972;2023-08-30T02:46:47;22.60;99.90
76967;DHT22;65904;52.278;20.972;2023-08-30T02:49:33;22.70;99.90
76967;DHT22;65904;52.278;20.972;2023-08-30T02:52:21;22.60;99.90
76967;DHT22;65904;52.278;20.972;2023-08-30T02:55:07;22.50;99.90
76967;DHT22;65904;52.278;20.972;2023-08-30T02:57:56;22.60;99.90
76967;DHT22;65904;52.278;20.972;2023-08-30T03:00:42;22.50;99.90
76967;DHT22;65904;52.278;20.972;2023-08-30T03:03:28;22.50;99.90
76967;DHT22;65904;52.278;20.972;2023-08-30T03:06:14;22.50;99.90
76967;DHT22;65904;52.278;20.972;2023-08-30T03:09:02;22.50;99.90
76967;DHT22;65904;52.278;20.972;2023-08-30T03:11:52;22.50;99.90
76967;DHT22;65904;52.278;20.972;2023-08-30T03:14:38;22.50;99.90
76967;DHT22;65904;52.278;20.972;2023-08-30T03:17:24;22.40;99.90
76967;DHT22;65904;52.278;20.972;2023-08-30T03:20:12;22.40;99.90
76967;DHT22;65904;52.278;20.972;2023-08-30T03:22:58;22.40;99.90
76967;DHT22;65904;52.278;20.972;2023-08-30T03:25:45;22.40;99.90
76967;DHT22;65904;52.278;20.972;2023-08-30T03:28:31;22.40;99.90
76967;DHT22;65904;52.278;20.972;2023-08-30T03:31:19;22.40;99.90
76967;DHT22;65904;52.278;20.972;2023-08-30T03:34:05;22.30;99.90
76967;DHT22;65904;52.278;20.972;2023-08-30T03:36:51;22.40;99.90
76967;DHT22;65904;52.278;20.972;2023-08-30T03:39:38;22.40;99.90
76967;DHT22;65904;52.278;20.972;2023-08-30T03:42:26;22.30;99.90
76967;DHT22;65904;52.278;20.972;2023-08-30T03:45:12;22.30;99.90
76967;DHT22;65904;52.278;20.972;2023-08-30T03:47:58;22.30;99.90
76967;DHT22;65904;52.278;20.972;2023-08-30T03:50:45;22.30;99.90
76967;DHT22;65904;52.278;20.972;2023-08-30T03:53:31;22.40;99.90
76967;DHT22;65904;52.278;20.972;2023-08-30T03:56:18;22.50;99.90
76967;DHT22;65904;52.278;20.972;2023-08-30T03:59:05;21.10;99.90
76967;DHT22;65904;52.278;20.972;2023-08-30T04:01:51;20.90;99.90
76967;DHT22;65904;52.278;20.972;2023-08-30T04:04:38;22.10;99.90
76967;DHT22;65904;52.278;20.972;2023-08-30T04:07:24;22.70;99.90
76967;DHT22;65904;52.278;20.972;2023-08-30T04:10:11;22.80;99.90
76967;DHT22;65904;52.278;20.972;2023-08-30T04:12:57;20.70;99.90
76967;DHT22;65904;52.278;20.972;2023-08-30T04:15:46;21.40;99.90
76967;DHT22;65904;52.278;20.972;2023-08-30T04:18:32;22.40;99.90
76967;DHT22;65904;52.278;20.972;2023-08-30T04:21:18;23.00;99.90
76967;DHT22;65904;52.278;20.972;2023-08-30T04:24:05;23.30;99.90
76967;DHT22;65904;52.278;20.972;2023-08-30T04:26:51;23.60;99.90
76967;DHT22;65904;52.278;20.972;2023-08-30T04:29:38;23.80;99.90
76967;DHT22;65904;52.278;20.972;2023-08-30T04:32:26;23.80;99.90
76967;DHT22;65904;52.278;20.972;2023-08-30T04:35:12;23.90;99.90
76967;DHT22;65904;52.278;20.972;2023-08-30T04:37:59;24.00;99.90
76967;DHT22;65904;52.278;20.972;2023-08-30T04:40:45;24.00;99.90
76967;DHT22;65904;52.278;20.972;2023-08-30T04:43:32;24.10;99.90
76967;DHT22;65904;52.278;20.972;2023-08-30T04:46:18;24.10;99.90
76967;DHT22;65904;52.278;20.972;2023-08-30T04:49:06;23.60;99.90
76967;DHT22;65904;52.278;20.972;2023-08-30T04:51:52;21.70;99.90
76967;DHT22;65904;52.278;20.972;2023-08-30T04:54:38;21.70;99.90
76967;DHT22;65904;52.278;20.972;2023-08-30T04:57:24;22.60;99.90
76967;DHT22;65904;52.278;20.972;2023-08-30T05:00:12;23.30;99.90
76967;DHT22;65904;52.278;20.972;2023-08-30T05:02:58;23.80;99.90
76967;DHT22;65904;52.278;20.972;2023-08-30T05:05:47;24.00;99.90
76967;DHT22;65904;52.278;20.972;2023-08-30T05:08:34;24.20;99.90
76967;DHT22;65904;52.278;20.972;2023-08-30T05:11:20;24.40;99.90
76967;DHT22;65904;52.278;20.972;2023-08-30T05:14:07;24.50;99.90
76967;DHT22;65904;52.278;20.972;2023-08-30T05:16:58;24.60;99.90
76967;DHT22;65904;52.278;20.972;2023-08-30T05:19:44;24.60;99.90
76967;DHT22;65904;52.278;20.972;2023-08-30T05:22:32;24.70;99.90
76967;DHT22;65904;52.278;20.972;2023-08-30T05:25:18;24.70;99.90
76967;DHT22;65904;52.278;20.972;2023-08-30T05:28:04;24.80;99.90
76967;DHT22;65904;52.278;20.972;2023-08-30T05:30:50;24.80;99.90
76967;DHT22;65904;52.278;20.972;2023-08-30T05:33:52;24.80;99.90
76967;DHT22;65904;52.278;20.972;2023-08-30T05:37:07;24.90;99.90
76967;DHT22;65904;52.278;20.972;2023-08-30T05:40:13;24.90;99.90
76967;DHT22;65904;52.278;20.972;2023-08-30T05:43:02;24.90;99.90
76967;DHT22;65904;52.278;20.972;2023-08-30T05:45:48;24.90;99.90
76967;DHT22;65904;52.278;20.972;2023-08-30T05:48:34;24.90;99.90
76967;DHT22;65904;52.278;20.972;2023-08-30T05:51:20;25.00;99.90
76967;DHT22;65904;52.278;20.972;2023-08-30T05:54:06;25.00;99.90
76967;DHT22;65904;52.278;20.972;2023-08-30T05:56:54;25.00;99.90
76967;DHT22;65904;52.278;20.972;2023-08-30T05:59:40;25.00;99.90
76967;DHT22;65904;52.278;20.972;2023-08-30T06:02:26;25.00;99.90
76967;DHT22;65904;52.278;20.972;2023-08-30T06:05:12;25.00;99.90
76967;DHT22;65904;52.278;20.972;2023-08-30T06:07:59;25.00;99.90
76967;DHT22;65904;52.278;20.972;2023-08-30T06:10:45;25.00;99.90
76967;DHT22;65904;52.278;20.972;2023-08-30T06:13:33;25.00;99.90
76967;DHT22;65904;52.278;20.972;2023-08-30T06:16:19;25.00;99.90
76967;DHT22;65904;52.278;20.972;2023-08-30T06:19:05;25.00;99.90
76967;DHT22;65904;52.278;20.972;2023-08-30T06:21:51;25.00;99.90
76967;DHT22;65904;52.278;20.972;2023-08-30T06:24:38;25.00;99.90
76967;DHT22;65904;52.278;20.972;2023-08-30T06:27:24;25.00;99.90
76967;DHT22;65904;52.278;20.972;2023-08-30T06:30:13;25.10;99.90
76967;DHT22;65904;52.278;20.972;2023-08-30T06:32:59;25.10;99.90
76967;DHT22;65904;52.278;20.972;2023-08-30T06:35:47;25.10;99.90
76967;DHT22;65904;52.278;20.972;2023-08-30T06:38:33;25.10;99.90
76967;DHT22;65904;52.278;20.972;2023-08-30T06:41:19;25.10;99.90
76967;DHT22;65904;52.278;20.972;2023-08-30T06:44:05;25.10;99.90
76967;DHT22;65904;52.278;20.972;2023-08-30T06:46:53;25.10;99.90
76967;DHT22;65904;52.278;20.972;2023-08-30T06:49:39;25.00;99.90
76967;DHT22;65904;52.278;20.972;2023-08-30T06:52:25;25.10;99.90
76967;DHT22;65904;52.278;20.972;2023-08-30T06:55:12;25.10;99.90
76967;DHT22;65904;52.278;20.972;2023-08-30T06:57:58;25.10;99.90
76967;DHT22;65904;52.278;20.972;2023-08-30T07:00:44;25.10;99.90
76967;DHT22;65904;52.278;20.972;2023-08-30T07:03:31;25.10;99.90
76967;DHT22;65904;52.278;20.972;2023-08-30T07:06:18;25.10;99.90
76967;DHT22;65904;52.278;20.972;2023-08-30T07:09:04;25.10;99.90
76967;DHT22;65904;52.278;20.972;2023-08-30T07:11:51;25.10;99.90
76967;DHT22;65904;52.278;20.972;2023-08-30T07:14:37;25.10;99.90
76967;DHT22;65904;52.278;20.972;2023-08-30T07:17:23;25.10;99.90
76967;DHT22;65904;52.278;20.972;2023-08-30T07:20:11;25.10;99.90
76967;DHT22;65904;52.278;20.972;2023-08-30T07:22:58;25.10;99.90
76967;DHT22;65904;52.278;20.972;2023-08-30T07:25:44;25.10;99.90
76967;DHT22;65904;52.278;20.972;2023-08-30T07:28:30;25.10;99.90
76967;DHT22;65904;52.278;20.972;2023-08-30T07:31:16;25.10;99.90
76967;DHT22;65904;52.278;20.972;2023-08-30T07:34:02;25.10;99.90
76967;DHT22;65904;52.278;20.972;2023-08-30T07:36:50;25.10;99.90
76967;DHT22;65904;52.278;20.972;2023-08-30T07:39:36;25.10;99.90
76967;DHT22;65904;52.278;20.972;2023-08-30T07:42:23;25.10;99.90
76967;DHT22;65904;52.278;20.972;2023-08-30T07:45:09;25.10;99.90
76967;DHT22;65904;52.278;20.972;2023-08-30T07:47:55;25.10;99.90
76967;DHT22;65904;52.278;20.972;2023-08-30T07:50:41;25.10;99.90
76967;DHT22;65904;52.278;20.972;2023-08-30T07:53:29;25.10;99.90
76967;DHT22;65904;52.278;20.972;2023-08-30T07:56:15;25.10;99.90
76967;DHT22;65904;52.278;20.972;2023-08-30T07:59:01;25.10;99.90
76967;DHT22;65904;52.278;20.972;2023-08-30T08:01:47;25.10;99.90
76967;DHT22;65904;52.278;20.972;2023-08-30T08:04:33;25.10;99.90
76967;DHT22;65904;52.278;20.972;2023-08-30T08:07:20;25.10;99.90
76967;DHT22;65904;52.278;20.972;2023-08-30T08:10:08;25.10;99.90
76967;DHT22;65904;52.278;20.972;2023-08-30T08:12:54;25.10;99.90
76967;DHT22;65904;52.278;20.972;2023-08-30T08:15:40;25.10;99.90
76967;DHT22;65904;52.278;20.972;2023-08-30T08:18:28;25.10;99.90
76967;DHT22;65904;52.278;20.972;2023-08-30T08:21:14;25.10;99.90
76967;DHT22;65904;52.278;20.972;2023-08-30T08:24:00;25.10;99.90
76967;DHT22;65904;52.278;20.972;2023-08-30T08:26:47;25.10;99.90
76967;DHT22;65904;52.278;20.972;2023-08-30T08:29:34;25.10;99.90
76967;DHT22;65904;52.278;20.972;2023-08-30T08:32:20;25.10;99.90
76967;DHT22;65904;52.278;20.972;2023-08-30T08:35:07;25.10;99.90
76967;DHT22;65904;52.278;20.972;2023-08-30T08:37:53;25.10;99.90
76967;DHT22;65904;52.278;20.972;2023-08-30T08:40:39;25.10;99.90
76967;DHT22;65904;52.278;20.972;2023-08-30T08:43:28;25.10;99.90
76967;DHT22;65904;52.278;20.972;2023-08-30T08:46:16;25.10;99.90
76967;DHT22;65904;52.278;20.972;2023-08-30T08:49:08;25.10;99.90
76967;DHT22;65904;52.278;20.972;2023-08-30T08:51:55;25.10;99.90
76967;DHT22;65904;52.278;20.972;2023-08-30T08:54:41;25.10;99.90
76967;DHT22;65904;52.278;20.972;2023-08-30T08:57:29;25.10;99.90
76967;DHT22;65904;52.278;20.972;2023-08-30T09:00:18;25.20;99.90
76967;DHT22;65904;52.278;20.972;2023-08-30T09:03:05;25.10;99.90
76967;DHT22;65904;52.278;20.972;2023-08-30T09:05:52;25.10;99.90
76967;DHT22;65904;52.278;20.972;2023-08-30T09:08:39;25.10;99.90
76967;DHT22;65904;52.278;20.972;2023-08-30T09:11:25;25.20;99.90
76967;DHT22;65904;52.278;20.972;2023-08-30T09:14:11;25.10;99.90
76967;DHT22;65904;52.278;20.972;2023-08-30T09:17:00;25.10;99.90
76967;DHT22;65904;52.278;20.972;2023-08-30T09:19:46;25.20;99.90
76967;DHT22;65904;52.278;20.972;2023-08-30T09:22:36;25.20;99.90
76967;DHT22;65904;52.278;20.972;2023-08-30T09:25:24;25.20;99.90
76967;DHT22;65904;52.278;20.972;2023-08-30T09:28:10;25.20;99.90
76967;DHT22;65904;52.278;20.972;2023-08-30T09:30:57;25.20;99.90
76967;DHT22;65904;52.278;20.972;2023-08-30T09:33:46;25.20;99.90
76967;DHT22;65904;52.278;20.972;2023-08-30T09:36:33;25.20;99.90
76967;DHT22;65904;52.278;20.972;2023-08-30T09:39:20;25.20;99.90
76967;DHT22;65904;52.278;20.972;2023-08-30T09:42:06;25.20;99.90
76967;DHT22;65904;52.278;20.972;2023-08-30T09:44:52;25.20;99.90
76967;DHT22;65904;52.278;20.972;2023-08-30T09:47:38;25.20;99.90
76967;DHT22;65904;52.278;20.972;2023-08-30T09:50:26;25.20;99.90
76967;DHT22;65904;52.278;20.972;2023-08-30T09:53:15;25.20;99.90
76967;DHT22;65904;52.278;20.972;2023-08-30T09:56:03;25.20;99.90
76967;DHT22;65904;52.278;20.972;2023-08-30T09:58:50;25.20;99.90
76967;DHT22;65904;52.278;20.972;2023-08-30T10:01:37;25.20;99.90
76967;DHT22;65904;52.278;20.972;2023-08-30T10:04:23;25.20;99.90
76967;DHT22;65904;52.278;20.972;2023-08-30T10:07:12;25.20;99.90
76967;DHT22;65904;52.278;20.972;2023-08-30T10:09:59;25.20;99.90
76967;DHT22;65904;52.278;20.972;2023-08-30T10:12:46;25.20;99.90
76967;DHT22;65904;52.278;20.972;2023-08-30T10:15:34;25.20;99.90
76967;DHT22;65904;52.278;20.972;2023-08-30T10:18:22;25.20;99.90
76967;DHT22;65904;52.278;20.972;2023-08-30T10:21:12;25.20;99.90
76967;DHT22;65904;52.278;20.972;2023-08-30T10:24:00;25.20;99.90
76967;DHT22;65904;52.278;20.972;2023-08-30T10:26:48;25.20;99.90
76967;DHT22;65904;52.278;20.972;2023-08-30T10:29:36;25.20;99.90
76967;DHT22;65904;52.278;20.972;2023-08-30T10:32:23;25.20;99.90
76967;DHT22;65904;52.278;20.972;2023-08-30T10:35:11;25.20;99.90
76967;DHT22;65904;52.278;20.972;2023-08-30T10:38:00;25.20;99.90
76967;DHT22;65904;52.278;20.972;2023-08-30T10:40:48;25.20;99.90
76967;DHT22;65904;52.278;20.972;2023-08-30T10:43:35;25.30;99.90
76967;DHT22;65904;52.278;20.972;2023-08-30T10:46:32;25.30;99.90
76967;DHT22;65904;52.278;20.972;2023-08-30T10:49:19;25.20;99.90
76967;DHT22;65904;52.278;20.972;2023-08-30T10:52:05;25.30;99.90
76967;DHT22;65904;52.278;20.972;2023-08-30T10:55:05;25.30;99.90
76967;DHT22;65904;52.278;20.972;2023-08-30T10:58:00;25.30;99.90
76967;DHT22;65904;52.278;20.972;2023-08-30T11:00:47;25.30;99.90
76967;DHT22;65904;52.278;20.972;2023-08-30T11:03:34;25.40;99.90
76967;DHT22;65904;52.278;20.972;2023-08-30T11:06:21;25.40;99.90
76967;DHT22;65904;52.278;20.972;2023-08-30T11:09:08;25.40;99.90
76967;DHT22;65904;52.278;20.972;2023-08-30T11:11:55;25.40;99.90
76967;DHT22;65904;52.278;20.972;2023-08-30T11:14:43;25.40;99.90
76967;DHT22;65904;52.278;20.972;2023-08-30T11:17:29;25.40;99.90
76967;DHT22;65904;52.278;20.972;2023-08-30T11:20:16;25.40;99.90
76967;DHT22;65904;52.278;20.972;2023-08-30T11:23:04;25.40;99.90
76967;DHT22;65904;52.278;20.972;2023-08-30T11:25:50;25.40;99.90
76967;DHT22;65904;52.278;20.972;2023-08-30T11:28:36;25.40;99.90
76967;DHT22;65904;52.278;20.972;2023-08-30T11:31:28;25.40;99.90
76967;DHT22;65904;52.278;20.972;2023-08-30T11:34:14;25.40;99.90
76967;DHT22;65904;52.278;20.972;2023-08-30T11:37:00;25.40;99.90
76967;DHT22;65904;52.278;20.972;2023-08-30T11:39:46;25.40;99.90
76967;DHT22;65904;52.278;20.972;2023-08-30T11:42:32;25.40;99.90
76967;DHT22;65904;52.278;20.972;2023-08-30T11:45:18;25.40;99.90
76967;DHT22;65904;52.278;20.972;2023-08-30T11:48:06;25.40;99.90
76967;DHT22;65904;52.278;20.972;2023-08-30T11:50:53;25.40;99.90
76967;DHT22;65904;52.278;20.972;2023-08-30T11:53:39;25.40;99.90
76967;DHT22;65904;52.278;20.972;2023-08-30T11:56:26;25.40;99.90
76967;DHT22;65904;52.278;20.972;2023-08-30T11:59:17;25.40;99.90
76967;DHT22;65904;52.278;20.972;2023-08-30T12:02:03;25.40;99.90
76967;DHT22;65904;52.278;20.972;2023-08-30T12:04:51;25.40;99.90
76967;DHT22;65904;52.278;20.972;2023-08-30T12:07:50;25.40;99.90
76967;DHT22;65904;52.278;20.972;2023-08-30T12:10:36;25.40;99.90
76967;DHT22;65904;52.278;20.972;2023-08-30T12:13:23;25.50;99.90
76967;DHT22;65904;52.278;20.972;2023-08-30T12:16:15;25.40;99.90
76967;DHT22;65904;52.278;20.972;2023-08-30T12:19:08;25.40;99.90
76967;DHT22;65904;52.278;20.972;2023-08-30T12:22:03;25.40;99.90
76967;DHT22;65904;52.278;20.972;2023-08-30T12:24:49;25.40;99.90
76967;DHT22;65904;52.278;20.972;2023-08-30T12:27:35;25.40;99.90
76967;DHT22;65904;52.278;20.972;2023-08-30T12:30:22;25.30;99.90
76967;DHT22;65904;52.278;20.972;2023-08-30T12:33:09;25.30;99.90
76967;DHT22;65904;52.278;20.972;2023-08-30T12:35:55;25.30;99.90
76967;DHT22;65904;52.278;20.972;2023-08-30T12:38:43;25.30;99.90
76967;DHT22;65904;52.278;20.972;2023-08-30T12:41:29;25.30;99.90
76967;DHT22;65904;52.278;20.972;2023-08-30T12:44:16;25.30;99.90
76967;DHT22;65904;52.278;20.972;2023-08-30T12:47:02;25.30;99.90
76967;DHT22;65904;52.278;20.972;2023-08-30T12:49:48;25.30;99.90
76967;DHT22;65904;52.278;20.972;2023-08-30T12:52:35;25.40;99.90
76967;DHT22;65904;52.278;20.972;2023-08-30T12:55:22;25.40;99.90
76967;DHT22;65904;52.278;20.972;2023-08-30T12:58:08;25.50;99.90
76967;DHT22;65904;52.278;20.972;2023-08-30T13:00:56;25.40;99.90
76967;DHT22;65904;52.278;20.972;2023-08-30T13:03:42;25.50;99.90
76967;DHT22;65904;52.278;20.972;2023-08-30T13:06:28;25.50;99.90
76967;DHT22;65904;52.278;20.972;2023-08-30T13:09:14;25.50;99.90
76967;DHT22;65904;52.278;20.972;2023-08-30T13:12:02;25.50;99.90
76967;DHT22;65904;52.278;20.972;2023-08-30T13:14:48;25.50;99.90
76967;DHT22;65904;52.278;20.972;2023-08-30T13:17:35;25.50;99.90
76967;DHT22;65904;52.278;20.972;2023-08-30T13:20:21;25.50;99.90
76967;DHT22;65904;52.278;20.972;2023-08-30T13:23:07;25.50;99.90
76967;DHT22;65904;52.278;20.972;2023-08-30T13:25:54;25.50;99.90
76967;DHT22;65904;52.278;20.972;2023-08-30T13:28:42;25.50;99.90
76967;DHT22;65904;52.278;20.972;2023-08-30T13:31:28;25.40;99.90
76967;DHT22;65904;52.278;20.972;2023-08-30T13:34:14;25.50;99.90
76967;DHT22;65904;52.278;20.972;2023-08-30T13:37:00;25.50;99.90
76967;DHT22;65904;52.278;20.972;2023-08-30T13:39:46;25.50;99.90
76967;DHT22;65904;52.278;20.972;2023-08-30T13:42:32;25.50;99.90
76967;DHT22;65904;52.278;20.972;2023-08-30T13:45:20;25.50;99.90
76967;DHT22;65904;52.278;20.972;2023-08-30T13:48:06;25.60;99.90
76967;DHT22;65904;52.278;20.972;2023-08-30T13:50:52;25.50;99.90
76967;DHT22;65904;52.278;20.972;2023-08-30T13:53:42;25.60;99.90
76967;DHT22;65904;52.278;20.972;2023-08-30T13:56:28;25.50;99.90
76967;DHT22;65904;52.278;20.972;2023-08-30T13:59:14;25.50;99.90
76967;DHT22;65904;52.278;20.972;2023-08-30T14:02:02;25.60;99.90
76967;DHT22;65904;52.278;20.972;2023-08-30T14:04:48;25.50;99.90
76967;DHT22;65904;52.278;20.972;2023-08-30T14:07:35;25.60;99.90
76967;DHT22;65904;52.278;20.972;2023-08-30T14:10:21;25.60;99.90
76967;DHT22;65904;52.278;20.972;2023-08-30T14:13:07;25.60;99.90
76967;DHT22;65904;52.278;20.972;2023-08-30T14:15:53;25.70;99.90
76967;DHT22;65904;52.278;20.972;2023-08-30T14:18:42;25.70;99.90
76967;DHT22;65904;52.278;20.972;2023-08-30T14:21:28;25.70;99.90
76967;DHT22;65904;52.278;20.972;2023-08-30T14:24:15;25.70;99.90
76967;DHT22;65904;52.278;20.972;2023-08-30T14:27:01;25.70;99.90
76967;DHT22;65904;52.278;20.972;2023-08-30T14:29:47;25.80;99.90
76967;DHT22;65904;52.278;20.972;2023-08-30T14:32:33;25.80;99.90
76967;DHT22;65904;52.278;20.972;2023-08-30T14:35:21;25.80;99.90
76967;DHT22;65904;52.278;20.972;2023-08-30T14:38:08;25.80;99.90
76967;DHT22;65904;52.278;20.972;2023-08-30T14:40:55;25.70;99.90
76967;DHT22;65904;52.278;20.972;2023-08-30T14:43:41;25.70;99.90
76967;DHT22;65904;52.278;20.972;2023-08-30T14:46:27;25.70;99.90
76967;DHT22;65904;52.278;20.972;2023-08-30T14:49:14;25.70;99.90
76967;DHT22;65904;52.278;20.972;2023-08-30T14:52:01;25.70;99.90
76967;DHT22;65904;52.278;20.972;2023-08-30T14:54:47;25.60;99.90
76967;DHT22;65904;52.278;20.972;2023-08-30T14:57:34;25.60;99.90
76967;DHT22;65904;52.278;20.972;2023-08-30T15:00:20;25.60;99.90
76967;DHT22;65904;52.278;20.972;2023-08-30T15:03:06;25.50;99.90
76967;DHT22;65904;52.278;20.972;2023-08-30T15:05:56;25.50;99.90
76967;DHT22;65904;52.278;20.972;2023-08-30T15:08:44;25.50;99.90
76967;DHT22;65904;52.278;20.972;2023-08-30T15:11:30;25.50;99.90
76967;DHT22;65904;52.278;20.972;2023-08-30T15:14:16;25.50;99.90
76967;DHT22;65904;52.278;20.972;2023-08-30T15:17:02;25.50;99.90
76967;DHT22;65904;52.278;20.972;2023-08-30T15:19:48;25.50;99.90
76967;DHT22;65904;52.278;20.972;2023-08-30T15:22:34;25.50;99.90
76967;DHT22;65904;52.278;20.972;2023-08-30T15:25:22;25.40;99.90
76967;DHT22;65904;52.278;20.972;2023-08-30T15:28:08;25.40;99.90
76967;DHT22;65904;52.278;20.972;2023-08-30T15:30:54;25.40;99.90
76967;DHT22;65904;52.278;20.972;2023-08-30T15:33:42;25.40;99.90
76967;DHT22;65904;52.278;20.972;2023-08-30T15:36:29;25.40;99.90
76967;DHT22;65904;52.278;20.972;2023-08-30T15:39:16;25.40;99.90
76967;DHT22;65904;52.278;20.972;2023-08-30T15:42:04;25.40;99.90
76967;DHT22;65904;52.278;20.972;2023-08-30T15:44:50;25.40;99.90
76967;DHT22;65904;52.278;20.972;2023-08-30T15:47:36;25.40;99.90
76967;DHT22;65904;52.278;20.972;2023-08-30T15:50:22;25.40;99.90
76967;DHT22;65904;52.278;20.972;2023-08-30T15:53:08;25.30;99.90
76967;DHT22;65904;52.278;20.972;2023-08-30T15:55:55;25.30;99.90
76967;DHT22;65904;52.278;20.972;2023-08-30T15:58:42;25.30;99.90
76967;DHT22;65904;52.278;20.972;2023-08-30T16:01:28;25.30;99.90
76967;DHT22;65904;52.278;20.972;2023-08-30T16:04:14;25.30;99.90
76967;DHT22;65904;52.278;20.972;2023-08-30T16:07:00;25.30;99.90
76967;DHT22;65904;52.278;20.972;2023-08-30T16:09:46;25.30;99.90
76967;DHT22;65904;52.278;20.972;2023-08-30T16:12:33;25.20;99.90
76967;DHT22;65904;52.278;20.972;2023-08-30T16:15:20;25.30;99.90
76967;DHT22;65904;52.278;20.972;2023-08-30T16:18:08;24.20;99.90
76967;DHT22;65904;52.278;20.972;2023-08-30T16:20:54;23.20;99.90
76967;DHT22;65904;52.278;20.972;2023-08-30T16:23:40;23.70;99.90
76967;DHT22;65904;52.278;20.972;2023-08-30T16:26:27;24.00;99.90
76967;DHT22;65904;52.278;20.972;2023-08-30T16:29:13;24.20;99.90
76967;DHT22;65904;52.278;20.972;2023-08-30T16:32:00;24.30;99.90
76967;DHT22;65904;52.278;20.972;2023-08-30T16:34:47;24.40;99.90
76967;DHT22;65904;52.278;20.972;2023-08-30T16:37:34;24.50;99.90
76967;DHT22;65904;52.278;20.972;2023-08-30T16:40:20;24.50;99.90
76967;DHT22;65904;52.278;20.972;2023-08-30T16:43:07;24.50;99.90
76967;DHT22;65904;52.278;20.972;2023-08-30T16:45:53;24.60;99.90
76967;DHT22;65904;52.278;20.972;2023-08-30T16:48:40;24.50;99.90
76967;DHT22;65904;52.278;20.972;2023-08-30T16:51:27;24.50;99.90
76967;DHT22;65904;52.278;20.972;2023-08-30T16:54:13;24.60;99.90
76967;DHT22;65904;52.278;20.972;2023-08-30T16:56:59;24.60;99.90
76967;DHT22;65904;52.278;20.972;2023-08-30T16:59:47;22.90;99.90
76967;DHT22;65904;52.278;20.972;2023-08-30T17:02:34;23.20;99.90
76967;DHT22;65904;52.278;20.972;2023-08-30T17:05:22;23.80;99.90
76967;DHT22;65904;52.278;20.972;2023-08-30T17:08:08;24.20;99.90
76967;DHT22;65904;52.278;20.972;2023-08-30T17:10:54;24.40;99.90
76967;DHT22;65904;52.278;20.972;2023-08-30T17:13:47;24.60;99.90
76967;DHT22;65904;52.278;20.972;2023-08-30T17:16:33;24.60;99.90
76967;DHT22;65904;52.278;20.972;2023-08-30T17:19:19;24.70;99.90